sensor_id;sensor_type;location;lat;lon;timestamp;temperature;humidity
19232;DHT22;9750;48.730;10.294;2022-08-19T00:01:19;20.10;99.80
19232;DHT22;9750;48.730;10.294;2022-08-19T00:03:46;20.10;99.90
19232;DHT22;9750;48.730;10.294;2022-08-19T00:06:14;20.10;99.90
19232;DHT22;9750;48.730;10.294;2022-08-19T00:08:42;20.00;99.90
19232;DHT22;9750;48.730;10.294;2022-08-19T00:11:12;20.00;99.90
19232;DHT22;9750;48.730;10.294;2022-08-19T00:13:39;20.00;99.90
19232;DHT22;9750;48.730;10.294;2022-08-19T00:16:07;19.90;99.90
19232;DHT22;9750;48.730;10.294;2022-08-19T00:18:34;19.90;99.90
19232;DHT22;9750;48.730;10.294;2022-08-19T00:21:02;19.90;99.90
19232;DHT22;9750;48.730;10.294;2022-08-19T00:23:33;19.90;99.90
19232;DHT22;9750;48.730;10.294;2022-08-19T00:26:02;19.80;99.90
19232;DHT22;9750;48.730;10.294;2022-08-19T00:28:31;19.80;99.90
19232;DHT22;9750;48.730;10.294;2022-08-19T00:30:59;19.80;99.90
19232;DHT22;9750;48.730;10.294;2022-08-19T00:33:28;19.80;99.90
19232;DHT22;9750;48.730;10.294;2022-08-19T00:35:58;19.80;99.90
19232;DHT22;9750;48.730;10.294;2022-08-19T00:38:25;19.70;99.90
19232;DHT22;9750;48.730;10.294;2022-08-19T00:40:53;19.70;99.90
19232;DHT22;9750;48.730;10.294;2022-08-19T00:43:23;19.70;99.90
19232;DHT22;9750;48.730;10.294;2022-08-19T00:45:53;19.70;99.90
19232;DHT22;9750;48.730;10.294;2022-08-19T00:48:20;19.60;99.90
19232;DHT22;9750;48.730;10.294;2022-08-19T00:50:49;19.60;99.90
19232;DHT22;9750;48.730;10.294;2022-08-19T00:53:21;19.60;99.90
19232;DHT22;9750;48.730;10.294;2022-08-19T00:55:51;19.60;99.90
19232;DHT22;9750;48.730;10.294;2022-08-19T00:58:24;19.60;99.90
19232;DHT22;9750;48.730;10.294;2022-08-19T01:00:53;19.60;99.90
19232;DHT22;9750;48.730;10.294;2022-08-19T01:03:21;19.50;99.90
19232;DHT22;9750;48.730;10.294;2022-08-19T01:05:50;19.50;99.90
19232;DHT22;9750;48.730;10.294;2022-08-19T01:08:19;19.50;99.90
19232;DHT22;9750;48.730;10.294;2022-08-19T01:10:49;19.50;99.90
19232;DHT22;9750;48.730;10.294;2022-08-19T01:13:20;19.40;99.90
19232;DHT22;9750;48.730;10.294;2022-08-19T01:15:53;19.40;99.90
19232;DHT22;9750;48.730;10.294;2022-08-19T01:18:23;19.40;99.90
19232;DHT22;9750;48.730;10.294;2022-08-19T01:20:52;19.30;99.90
19232;DHT22;9750;48.730;10.294;2022-08-19T01:23:22;19.40;99.90
19232;DHT22;9750;48.730;10.294;2022-08-19T01:26:09;19.40;99.90
19232;DHT22;9750;48.730;10.294;2022-08-19T01:28:38;19.40;99.90
19232;DHT22;9750;48.730;10.294;2022-08-19T01:31:08;19.40;99.90
19232;DHT22;9750;48.730;10.294;2022-08-19T01:33:37;19.30;99.90
19232;DHT22;9750;48.730;10.294;2022-08-19T01:36:07;19.30;99.90
19232;DHT22;9750;48.730;10.294;2022-08-19T01:38:39;19.30;99.90
19232;DHT22;9750;48.730;10.294;2022-08-19T01:41:07;19.30;99.90
19232;DHT22;9750;48.730;10.294;2022-08-19T01:43:34;19.30;99.90
19232;DHT22;9750;48.730;10.294;2022-08-19T01:46:02;19.30;99.90
19232;DHT22;9750;48.730;10.294;2022-08-19T01:48:34;19.30;99.90
19232;DHT22;9750;48.730;10.294;2022-08-19T01:51:01;19.30;99.90
19232;DHT22;9750;48.730;10.294;2022-08-19T01:53:29;19.30;99.90
19232;DHT22;9750;48.730;10.294;2022-08-19T01:55:58;19.20;99.90
19232;DHT22;9750;48.730;10.294;2022-08-19T01:58:29;19.30;99.90
19232;DHT22;9750;48.730;10.294;2022-08-19T02:00:58;19.20;99.90
19232;DHT22;9750;48.730;10.294;2022-08-19T02:03:25;19.20;99.90
19232;DHT22;9750;48.730;10.294;2022-08-19T02:05:57;19.20;99.90
19232;DHT22;9750;48.730;10.294;2022-08-19T02:08:25;19.10;99.90
19232;DHT22;9750;48.730;10.294;2022-08-19T02:10:53;19.20;99.90
19232;DHT22;9750;48.730;10.294;2022-08-19T02:13:23;19.20;99.90
19232;DHT22;9750;48.730;10.294;2022-08-19T02:15:50;19.20;99.90
19232;DHT22;9750;48.730;10.294;2022-08-19T02:18:18;19.20;99.90
19232;DHT22;9750;48.730;10.294;2022-08-19T02:20:46;19.20;99.90
19232;DHT22;9750;48.730;10.294;2022-08-19T02:23:15;19.20;99.90
19232;DHT22;9750;48.730;10.294;2022-08-19T02:25:44;19.20;99.90
19232;DHT22;9750;48.730;10.294;2022-08-19T02:28:12;19.20;99.90
19232;DHT22;9750;48.730;10.294;2022-08-19T02:30:42;19.20;99.90
19232;DHT22;9750;48.730;10.294;2022-08-19T02:33:10;19.20;99.90
19232;DHT22;9750;48.730;10.294;2022-08-19T02:35:41;19.20;99.90
19232;DHT22;9750;48.730;10.294;2022-08-19T02:38:08;19.20;99.90
19232;DHT22;9750;48.730;10.294;2022-08-19T02:40:57;19.10;99.90
19232;DHT22;9750;48.730;10.294;2022-08-19T02:43:25;19.10;99.90
19232;DHT22;9750;48.730;10.294;2022-08-19T02:45:55;19.10;99.90
19232;DHT22;9750;48.730;10.294;2022-08-19T02:48:24;19.00;99.90
19232;DHT22;9750;48.730;10.294;2022-08-19T02:50:53;19.00;99.90
19232;DHT22;9750;48.730;10.294;2022-08-19T02:53:22;19.00;99.90
19232;DHT22;9750;48.730;10.294;2022-08-19T02:55:50;19.00;99.90
19232;DHT22;9750;48.730;10.294;2022-08-19T02:58:22;19.00;99.90
19232;DHT22;9750;48.730;10.294;2022-08-19T03:00:55;19.00;99.90
19232;DHT22;9750;48.730;10.294;2022-08-19T03:03:26;19.00;99.90
19232;DHT22;9750;48.730;10.294;2022-08-19T03:06:04;19.00;99.90
19232;DHT22;9750;48.730;10.294;2022-08-19T03:08:31;19.00;99.90
19232;DHT22;9750;48.730;10.294;2022-08-19T03:11:02;18.90;99.90
19232;DHT22;9750;48.730;10.294;2022-08-19T03:13:31;18.90;99.90
19232;DHT22;9750;48.730;10.294;2022-08-19T03:16:04;18.90;99.90
19232;DHT22;9750;48.730;10.294;2022-08-19T03:18:32;18.90;99.90
19232;DHT22;9750;48.730;10.294;2022-08-19T03:20:59;18.90;99.90
19232;DHT22;9750;48.730;10.294;2022-08-19T03:23:27;18.80;99.90
19232;DHT22;9750;48.730;10.294;2022-08-19T03:25:54;18.80;99.90
19232;DHT22;9750;48.730;10.294;2022-08-19T03:28:22;18.80;99.90
19232;DHT22;9750;48.730;10.294;2022-08-19T03:31:00;18.80;99.90
19232;DHT22;9750;48.730;10.294;2022-08-19T03:33:30;18.80;99.90
19232;DHT22;9750;48.730;10.294;2022-08-19T03:36:07;18.80;99.90
19232;DHT22;9750;48.730;10.294;2022-08-19T03:38:36;18.80;99.90
19232;DHT22;9750;48.730;10.294;2022-08-19T03:41:06;18.80;99.90
19232;DHT22;9750;48.730;10.294;2022-08-19T03:43:35;18.80;99.90
19232;DHT22;9750;48.730;10.294;2022-08-19T03:46:07;18.80;99.90
19232;DHT22;9750;48.730;10.294;2022-08-19T03:48:36;18.80;99.90
19232;DHT22;9750;48.730;10.294;2022-08-19T03:51:05;18.80;99.90
19232;DHT22;9750;48.730;10.294;2022-08-19T03:53:33;18.80;99.90
19232;DHT22;9750;48.730;10.294;2022-08-19T03:56:02;18.80;99.90
19232;DHT22;9750;48.730;10.294;2022-08-19T03:58:30;18.70;99.90
19232;DHT22;9750;48.730;10.294;2022-08-19T04:04:11;18.70;99.90
19232;DHT22;9750;48.730;10.294;2022-08-19T04:06:39;18.70;99.90
19232;DHT22;9750;48.730;10.294;2022-08-19T04:09:08;18.60;99.90
19232;DHT22;9750;48.730;10.294;2022-08-19T04:11:39;18.60;99.90
19232;DHT22;9750;48.730;10.294;2022-08-19T04:14:08;18.60;99.90
19232;DHT22;9750;48.730;10.294;2022-08-19T04:16:36;18.60;99.90
19232;DHT22;9750;48.730;10.294;2022-08-19T04:19:05;18.50;99.90
19232;DHT22;9750;48.730;10.294;2022-08-19T04:21:35;18.50;99.90
19232;DHT22;9750;48.730;10.294;2022-08-19T04:24:03;18.50;99.90
19232;DHT22;9750;48.730;10.294;2022-08-19T04:26:35;18.50;99.90
19232;DHT22;9750;48.730;10.294;2022-08-19T04:29:05;18.50;99.90
19232;DHT22;9750;48.730;10.294;2022-08-19T04:31:36;18.50;99.90
19232;DHT22;9750;48.730;10.294;2022-08-19T04:34:08;18.40;99.90
19232;DHT22;9750;48.730;10.294;2022-08-19T04:36:44;18.40;99.90
19232;DHT22;9750;48.730;10.294;2022-08-19T04:39:27;18.40;99.90
19232;DHT22;9750;48.730;10.294;2022-08-19T04:42:09;18.40;99.90
19232;DHT22;9750;48.730;10.294;2022-08-19T04:44:53;18.40;99.90
19232;DHT22;9750;48.730;10.294;2022-08-19T04:47:21;18.40;99.90
19232;DHT22;9750;48.730;10.294;2022-08-19T04:49:50;18.40;99.90
19232;DHT22;9750;48.730;10.294;2022-08-19T04:52:18;18.40;99.90
19232;DHT22;9750;48.730;10.294;2022-08-19T04:54:46;18.40;99.90
19232;DHT22;9750;48.730;10.294;2022-08-19T04:57:14;18.40;99.90
19232;DHT22;9750;48.730;10.294;2022-08-19T04:59:41;18.40;99.90
19232;DHT22;9750;48.730;10.294;2022-08-19T05:02:09;18.50;99.90
19232;DHT22;9750;48.730;10.294;2022-08-19T05:04:37;18.50;99.90
19232;DHT22;9750;48.730;10.294;2022-08-19T05:07:11;18.50;99.90
19232;DHT22;9750;48.730;10.294;2022-08-19T05:09:40;18.60;99.90
19232;DHT22;9750;48.730;10.294;2022-08-19T05:15:24;18.50;99.90
19232;DHT22;9750;48.730;10.294;2022-08-19T05:17:58;18.60;99.90
19232;DHT22;9750;48.730;10.294;2022-08-19T05:20:43;18.60;99.90
19232;DHT22;9750;48.730;10.294;2022-08-19T05:23:28;18.60;99.90
19232;DHT22;9750;48.730;10.294;2022-08-19T05:25:57;18.70;99.90
19232;DHT22;9750;48.730;10.294;2022-08-19T05:28:25;18.70;99.90
19232;DHT22;9750;48.730;10.294;2022-08-19T05:30:53;18.70;99.90
19232;DHT22;9750;48.730;10.294;2022-08-19T05:33:21;18.70;99.90
19232;DHT22;9750;48.730;10.294;2022-08-19T05:35:50;18.70;99.90
19232;DHT22;9750;48.730;10.294;2022-08-19T05:38:18;18.70;99.90
19232;DHT22;9750;48.730;10.294;2022-08-19T05:40:46;18.70;99.90
19232;DHT22;9750;48.730;10.294;2022-08-19T05:43:19;18.70;99.90
19232;DHT22;9750;48.730;10.294;2022-08-19T05:45:46;18.70;99.90
19232;DHT22;9750;48.730;10.294;2022-08-19T05:48:16;18.70;99.90
19232;DHT22;9750;48.730;10.294;2022-08-19T05:50:46;18.70;99.90
19232;DHT22;9750;48.730;10.294;2022-08-19T05:53:16;18.70;99.90
19232;DHT22;9750;48.730;10.294;2022-08-19T05:55:43;18.80;99.90
19232;DHT22;9750;48.730;10.294;2022-08-19T05:58:10;18.80;99.90
19232;DHT22;9750;48.730;10.294;2022-08-19T06:00:39;18.80;99.90
19232;DHT22;9750;48.730;10.294;2022-08-19T06:03:09;18.80;99.90
19232;DHT22;9750;48.730;10.294;2022-08-19T06:05:36;18.80;99.90
19232;DHT22;9750;48.730;10.294;2022-08-19T06:08:04;18.70;99.90
19232;DHT22;9750;48.730;10.294;2022-08-19T06:10:33;18.70;99.90
19232;DHT22;9750;48.730;10.294;2022-08-19T06:15:53;18.70;99.90
19232;DHT22;9750;48.730;10.294;2022-08-19T06:18:20;18.80;99.90
19232;DHT22;9750;48.730;10.294;2022-08-19T06:20:48;18.80;99.90
19232;DHT22;9750;48.730;10.294;2022-08-19T06:23:16;18.80;99.90
19232;DHT22;9750;48.730;10.294;2022-08-19T06:25:45;18.70;99.90
19232;DHT22;9750;48.730;10.294;2022-08-19T06:28:13;18.70;99.90
19232;DHT22;9750;48.730;10.294;2022-08-19T06:30:40;18.70;99.90
19232;DHT22;9750;48.730;10.294;2022-08-19T06:33:09;18.70;99.90
19232;DHT22;9750;48.730;10.294;2022-08-19T06:35:38;18.70;99.90
19232;DHT22;9750;48.730;10.294;2022-08-19T06:38:06;18.70;99.90
19232;DHT22;9750;48.730;10.294;2022-08-19T06:40:35;18.70;99.90
19232;DHT22;9750;48.730;10.294;2022-08-19T06:43:04;18.70;99.90
19232;DHT22;9750;48.730;10.294;2022-08-19T06:45:31;18.70;99.90
19232;DHT22;9750;48.730;10.294;2022-08-19T06:48:05;18.70;99.90
19232;DHT22;9750;48.730;10.294;2022-08-19T07:00:55;18.60;99.90
19232;DHT22;9750;48.730;10.294;2022-08-19T07:10:17;18.50;99.90
19232;DHT22;9750;48.730;10.294;2022-08-19T07:12:45;18.50;99.90
19232;DHT22;9750;48.730;10.294;2022-08-19T07:15:13;18.60;99.90
19232;DHT22;9750;48.730;10.294;2022-08-19T07:17:43;18.60;99.90
19232;DHT22;9750;48.730;10.294;2022-08-19T07:20:11;18.60;99.90
19232;DHT22;9750;48.730;10.294;2022-08-19T07:22:39;18.70;99.90
19232;DHT22;9750;48.730;10.294;2022-08-19T07:25:08;18.70;99.90
19232;DHT22;9750;48.730;10.294;2022-08-19T07:27:35;18.70;99.90
19232;DHT22;9750;48.730;10.294;2022-08-19T07:30:03;18.60;99.90
19232;DHT22;9750;48.730;10.294;2022-08-19T07:32:31;18.60;99.90
19232;DHT22;9750;48.730;10.294;2022-08-19T07:35:00;18.60;99.90
19232;DHT22;9750;48.730;10.294;2022-08-19T07:37:29;18.50;99.90
19232;DHT22;9750;48.730;10.294;2022-08-19T07:39:56;18.50;99.90
19232;DHT22;9750;48.730;10.294;2022-08-19T07:42:24;18.60;99.90
19232;DHT22;9750;48.730;10.294;2022-08-19T07:44:52;18.50;99.90
19232;DHT22;9750;48.730;10.294;2022-08-19T07:47:19;18.50;99.90
19232;DHT22;9750;48.730;10.294;2022-08-19T07:49:47;18.50;99.90
19232;DHT22;9750;48.730;10.294;2022-08-19T07:52:16;18.60;99.90
19232;DHT22;9750;48.730;10.294;2022-08-19T07:54:43;18.60;99.90
19232;DHT22;9750;48.730;10.294;2022-08-19T07:57:10;18.60;99.90
19232;DHT22;9750;48.730;10.294;2022-08-19T07:59:38;18.70;99.90
19232;DHT22;9750;48.730;10.294;2022-08-19T08:02:06;18.70;99.90
19232;DHT22;9750;48.730;10.294;2022-08-19T08:04:34;18.70;99.90
19232;DHT22;9750;48.730;10.294;2022-08-19T08:07:20;18.70;99.90
19232;DHT22;9750;48.730;10.294;2022-08-19T08:10:06;18.70;99.90
19232;DHT22;9750;48.730;10.294;2022-08-19T08:12:36;18.70;99.90
19232;DHT22;9750;48.730;10.294;2022-08-19T08:15:09;18.70;99.90
19232;DHT22;9750;48.730;10.294;2022-08-19T08:17:37;18.80;99.90
19232;DHT22;9750;48.730;10.294;2022-08-19T08:20:06;18.90;99.90
19232;DHT22;9750;48.730;10.294;2022-08-19T08:22:35;18.90;99.90
19232;DHT22;9750;48.730;10.294;2022-08-19T08:25:22;19.00;99.90
19232;DHT22;9750;48.730;10.294;2022-08-19T08:27:50;19.00;99.90
19232;DHT22;9750;48.730;10.294;2022-08-19T08:30:19;19.00;99.90
19232;DHT22;9750;48.730;10.294;2022-08-19T08:32:48;19.00;99.90
19232;DHT22;9750;48.730;10.294;2022-08-19T08:35:18;19.10;99.90
19232;DHT22;9750;48.730;10.294;2022-08-19T08:37:48;19.00;99.90
19232;DHT22;9750;48.730;10.294;2022-08-19T08:40:20;19.00;99.90
19232;DHT22;9750;48.730;10.294;2022-08-19T08:42:51;19.00;99.90
19232;DHT22;9750;48.730;10.294;2022-08-19T08:45:24;19.00;99.90
19232;DHT22;9750;48.730;10.294;2022-08-19T08:47:57;18.90;99.90
19232;DHT22;9750;48.730;10.294;2022-08-19T08:50:32;18.90;99.90
19232;DHT22;9750;48.730;10.294;2022-08-19T08:53:04;18.90;99.90
19232;DHT22;9750;48.730;10.294;2022-08-19T08:55:33;18.90;99.90
19232;DHT22;9750;48.730;10.294;2022-08-19T08:58:04;18.90;99.90
19232;DHT22;9750;48.730;10.294;2022-08-19T09:00:34;18.90;99.90
19232;DHT22;9750;48.730;10.294;2022-08-19T09:03:03;18.90;99.90
19232;DHT22;9750;48.730;10.294;2022-08-19T09:05:39;18.80;99.90
19232;DHT22;9750;48.730;10.294;2022-08-19T09:08:18;18.80;99.90
19232;DHT22;9750;48.730;10.294;2022-08-19T09:10:51;18.80;99.90
19232;DHT22;9750;48.730;10.294;2022-08-19T09:13:24;18.70;99.90
19232;DHT22;9750;48.730;10.294;2022-08-19T09:16:00;18.70;99.90
19232;DHT22;9750;48.730;10.294;2022-08-19T09:18:40;18.70;99.90
19232;DHT22;9750;48.730;10.294;2022-08-19T09:21:08;18.70;99.90
19232;DHT22;9750;48.730;10.294;2022-08-19T09:23:37;18.70;99.90
19232;DHT22;9750;48.730;10.294;2022-08-19T09:26:08;18.80;99.90
19232;DHT22;9750;48.730;10.294;2022-08-19T09:28:35;18.80;99.90
19232;DHT22;9750;48.730;10.294;2022-08-19T09:31:04;18.80;99.90
19232;DHT22;9750;48.730;10.294;2022-08-19T09:33:31;18.80;99.90
19232;DHT22;9750;48.730;10.294;2022-08-19T09:36:04;18.80;99.90
19232;DHT22;9750;48.730;10.294;2022-08-19T09:38:32;18.80;99.90
19232;DHT22;9750;48.730;10.294;2022-08-19T09:41:04;18.80;99.90
19232;DHT22;9750;48.730;10.294;2022-08-19T09:43:32;18.80;99.90
19232;DHT22;9750;48.730;10.294;2022-08-19T09:46:02;18.90;99.90
19232;DHT22;9750;48.730;10.294;2022-08-19T09:48:31;18.90;99.90
19232;DHT22;9750;48.730;10.294;2022-08-19T09:51:03;19.00;99.90
19232;DHT22;9750;48.730;10.294;2022-08-19T09:53:32;19.00;99.90
19232;DHT22;9750;48.730;10.294;2022-08-19T09:55:59;19.00;99.90
19232;DHT22;9750;48.730;10.294;2022-08-19T09:58:28;19.00;99.90
19232;DHT22;9750;48.730;10.294;2022-08-19T10:00:56;19.10;99.90
19232;DHT22;9750;48.730;10.294;2022-08-19T10:03:25;19.00;99.90
19232;DHT22;9750;48.730;10.294;2022-08-19T10:05:54;19.10;99.90
19232;DHT22;9750;48.730;10.294;2022-08-19T10:08:24;19.00;99.90
19232;DHT22;9750;48.730;10.294;2022-08-19T10:10:53;19.00;99.90
19232;DHT22;9750;48.730;10.294;2022-08-19T10:13:23;19.00;99.90
19232;DHT22;9750;48.730;10.294;2022-08-19T10:15:54;19.00;99.90
19232;DHT22;9750;48.730;10.294;2022-08-19T10:18:22;19.00;99.90
19232;DHT22;9750;48.730;10.294;2022-08-19T10:20:51;19.00;99.90
19232;DHT22;9750;48.730;10.294;2022-08-19T10:23:20;19.00;99.90
19232;DHT22;9750;48.730;10.294;2022-08-19T10:25:48;19.00;99.90
19232;DHT22;9750;48.730;10.294;2022-08-19T10:28:15;19.00;99.90
19232;DHT22;9750;48.730;10.294;2022-08-19T10:30:43;19.00;99.90
19232;DHT22;9750;48.730;10.294;2022-08-19T10:33:12;19.00;99.90
19232;DHT22;9750;48.730;10.294;2022-08-19T10:35:39;19.00;99.90
19232;DHT22;9750;48.730;10.294;2022-08-19T10:38:07;19.00;99.90
19232;DHT22;9750;48.730;10.294;2022-08-19T10:40:34;19.00;99.90
19232;DHT22;9750;48.730;10.294;2022-08-19T10:46:26;18.90;99.90
19232;DHT22;9750;48.730;10.294;2022-08-19T10:48:56;18.90;99.90
19232;DHT22;9750;48.730;10.294;2022-08-19T10:51:23;18.90;99.90
19232;DHT22;9750;48.730;10.294;2022-08-19T10:54:08;18.90;99.90
19232;DHT22;9750;48.730;10.294;2022-08-19T10:56:36;18.90;99.90
19232;DHT22;9750;48.730;10.294;2022-08-19T10:59:19;18.90;99.90
19232;DHT22;9750;48.730;10.294;2022-08-19T11:01:48;18.90;99.90
19232;DHT22;9750;48.730;10.294;2022-08-19T11:04:18;18.90;99.90
19232;DHT22;9750;48.730;10.294;2022-08-19T11:06:47;19.00;99.90
19232;DHT22;9750;48.730;10.294;2022-08-19T11:09:15;19.00;99.90
19232;DHT22;9750;48.730;10.294;2022-08-19T11:11:43;19.00;99.90
19232;DHT22;9750;48.730;10.294;2022-08-19T11:14:12;19.00;99.90
19232;DHT22;9750;48.730;10.294;2022-08-19T11:16:40;19.00;99.90
19232;DHT22;9750;48.730;10.294;2022-08-19T11:19:09;19.10;99.90
19232;DHT22;9750;48.730;10.294;2022-08-19T11:21:40;19.10;99.90
19232;DHT22;9750;48.730;10.294;2022-08-19T11:24:10;19.10;99.90
19232;DHT22;9750;48.730;10.294;2022-08-19T11:26:39;19.20;99.90
19232;DHT22;9750;48.730;10.294;2022-08-19T11:29:08;19.10;99.90
19232;DHT22;9750;48.730;10.294;2022-08-19T11:31:38;19.10;99.90
19232;DHT22;9750;48.730;10.294;2022-08-19T11:34:07;19.10;99.90
19232;DHT22;9750;48.730;10.294;2022-08-19T11:36:40;19.10;99.90
19232;DHT22;9750;48.730;10.294;2022-08-19T11:39:10;19.00;99.90
19232;DHT22;9750;48.730;10.294;2022-08-19T11:41:37;19.10;99.90
19232;DHT22;9750;48.730;10.294;2022-08-19T11:44:05;19.10;99.90
19232;DHT22;9750;48.730;10.294;2022-08-19T11:46:33;19.10;99.90
19232;DHT22;9750;48.730;10.294;2022-08-19T11:49:01;19.00;99.90
19232;DHT22;9750;48.730;10.294;2022-08-19T11:51:29;19.10;99.90
19232;DHT22;9750;48.730;10.294;2022-08-19T11:53:59;19.00;99.90
19232;DHT22;9750;48.730;10.294;2022-08-19T11:56:27;19.00;99.90
19232;DHT22;9750;48.730;10.294;2022-08-19T11:58:55;19.00;99.90
19232;DHT22;9750;48.730;10.294;2022-08-19T12:01:26;19.00;99.90
19232;DHT22;9750;48.730;10.294;2022-08-19T12:03:55;18.90;99.90
19232;DHT22;9750;48.730;10.294;2022-08-19T12:06:25;18.90;99.90
19232;DHT22;9750;48.730;10.294;2022-08-19T12:08:54;18.90;99.90
19232;DHT22;9750;48.730;10.294;2022-08-19T12:11:24;18.90;99.90
19232;DHT22;9750;48.730;10.294;2022-08-19T12:13:52;19.00;99.90
19232;DHT22;9750;48.730;10.294;2022-08-19T12:16:26;19.00;99.90
19232;DHT22;9750;48.730;10.294;2022-08-19T12:18:54;18.90;99.90
19232;DHT22;9750;48.730;10.294;2022-08-19T12:21:24;18.90;99.90
19232;DHT22;9750;48.730;10.294;2022-08-19T12:23:55;18.90;99.90
19232;DHT22;9750;48.730;10.294;2022-08-19T12:26:26;18.90;99.90
19232;DHT22;9750;48.730;10.294;2022-08-19T12:28:54;18.90;99.90
19232;DHT22;9750;48.730;10.294;2022-08-19T12:31:21;18.90;99.90
19232;DHT22;9750;48.730;10.294;2022-08-19T12:33:49;18.90;99.90
19232;DHT22;9750;48.730;10.294;2022-08-19T12:36:18;18.90;99.90
19232;DHT22;9750;48.730;10.294;2022-08-19T12:38:45;18.90;99.90
19232;DHT22;9750;48.730;10.294;2022-08-19T12:41:15;18.80;99.90
19232;DHT22;9750;48.730;10.294;2022-08-19T12:43:45;18.80;99.90
19232;DHT22;9750;48.730;10.294;2022-08-19T12:46:15;18.80;99.90
19232;DHT22;9750;48.730;10.294;2022-08-19T12:48:42;18.70;99.90
19232;DHT22;9750;48.730;10.294;2022-08-19T12:51:12;18.60;99.90
19232;DHT22;9750;48.730;10.294;2022-08-19T12:53:40;18.60;99.90
19232;DHT22;9750;48.730;10.294;2022-08-19T12:56:09;18.60;99.90
19232;DHT22;9750;48.730;10.294;2022-08-19T12:58:37;18.60;99.90
19232;DHT22;9750;48.730;10.294;2022-08-19T13:01:11;18.60;99.90
19232;DHT22;9750;48.730;10.294;2022-08-19T13:03:40;18.70;99.90
19232;DHT22;9750;48.730;10.294;2022-08-19T13:06:09;18.70;99.90
19232;DHT22;9750;48.730;10.294;2022-08-19T13:08:37;18.80;99.90
19232;DHT22;9750;48.730;10.294;2022-08-19T13:11:09;18.80;99.90
19232;DHT22;9750;48.730;10.294;2022-08-19T13:13:39;18.80;99.90
19232;DHT22;9750;48.730;10.294;2022-08-19T13:16:10;18.80;99.90
19232;DHT22;9750;48.730;10.294;2022-08-19T13:18:38;18.80;99.90
19232;DHT22;9750;48.730;10.294;2022-08-19T13:21:07;18.70;99.90
19232;DHT22;9750;48.730;10.294;2022-08-19T13:23:35;18.70;99.90
19232;DHT22;9750;48.730;10.294;2022-08-19T13:26:05;18.70;99.90
19232;DHT22;9750;48.730;10.294;2022-08-19T13:28:34;18.70;99.90
19232;DHT22;9750;48.730;10.294;2022-08-19T13:31:17;18.70;99.90
19232;DHT22;9750;48.730;10.294;2022-08-19T13:34:02;18.70;99.90
19232;DHT22;9750;48.730;10.294;2022-08-19T13:36:32;18.60;99.90
19232;DHT22;9750;48.730;10.294;2022-08-19T13:39:01;18.60;99.90
19232;DHT22;9750;48.730;10.294;2022-08-19T13:41:28;18.60;99.90
19232;DHT22;9750;48.730;10.294;2022-08-19T13:43:56;18.60;99.90
19232;DHT22;9750;48.730;10.294;2022-08-19T13:46:25;18.60;99.90
19232;DHT22;9750;48.730;10.294;2022-08-19T13:48:53;18.60;99.90
19232;DHT22;9750;48.730;10.294;2022-08-19T13:51:20;18.60;99.90
19232;DHT22;9750;48.730;10.294;2022-08-19T13:53:48;18.50;99.90
19232;DHT22;9750;48.730;10.294;2022-08-19T13:56:18;18.50;99.90
19232;DHT22;9750;48.730;10.294;2022-08-19T13:58:46;18.50;99.90
19232;DHT22;9750;48.730;10.294;2022-08-19T14:01:19;18.50;99.90
19232;DHT22;9750;48.730;10.294;2022-08-19T14:03:48;18.40;99.90
19232;DHT22;9750;48.730;10.294;2022-08-19T14:06:16;18.40;99.90
19232;DHT22;9750;48.730;10.294;2022-08-19T14:08:44;18.40;99.90
19232;DHT22;9750;48.730;10.294;2022-08-19T14:11:11;18.40;99.90
19232;DHT22;9750;48.730;10.294;2022-08-19T14:13:38;18.40;99.90
19232;DHT22;9750;48.730;10.294;2022-08-19T14:16:10;18.30;99.90
19232;DHT22;9750;48.730;10.294;2022-08-19T14:18:38;18.30;99.90
19232;DHT22;9750;48.730;10.294;2022-08-19T14:21:08;18.40;99.90
19232;DHT22;9750;48.730;10.294;2022-08-19T14:23:40;18.30;99.90
19232;DHT22;9750;48.730;10.294;2022-08-19T14:26:10;18.30;99.90
19232;DHT22;9750;48.730;10.294;2022-08-19T14:28:39;18.30;99.90
19232;DHT22;9750;48.730;10.294;2022-08-19T14:31:07;18.30;99.90
19232;DHT22;9750;48.730;10.294;2022-08-19T14:33:35;18.30;99.90
19232;DHT22;9750;48.730;10.294;2022-08-19T14:36:03;18.30;99.90
19232;DHT22;9750;48.730;10.294;2022-08-19T14:38:32;18.30;99.90
19232;DHT22;9750;48.730;10.294;2022-08-19T14:41:09;18.20;99.90
19232;DHT22;9750;48.730;10.294;2022-08-19T14:43:37;18.20;99.90
19232;DHT22;9750;48.730;10.294;2022-08-19T14:46:05;18.20;99.90
19232;DHT22;9750;48.730;10.294;2022-08-19T14:48:33;18.10;99.90
19232;DHT22;9750;48.730;10.294;2022-08-19T14:51:02;18.20;99.90
19232;DHT22;9750;48.730;10.294;2022-08-19T14:53:31;18.20;99.90
19232;DHT22;9750;48.730;10.294;2022-08-19T14:56:00;18.10;99.90
19232;DHT22;9750;48.730;10.294;2022-08-19T14:58:28;18.10;99.90
19232;DHT22;9750;48.730;10.294;2022-08-19T15:00:57;18.10;99.90
19232;DHT22;9750;48.730;10.294;2022-08-19T15:03:25;18.10;99.90
19232;DHT22;9750;48.730;10.294;2022-08-19T15:05:53;18.10;99.90
19232;DHT22;9750;48.730;10.294;2022-08-19T15:08:21;18.10;99.90
19232;DHT22;9750;48.730;10.294;2022-08-19T15:10:52;18.00;99.90
19232;DHT22;9750;48.730;10.294;2022-08-19T15:13:19;18.00;99.90
19232;DHT22;9750;48.730;10.294;2022-08-19T15:15:47;18.10;99.90
19232;DHT22;9750;48.730;10.294;2022-08-19T15:18:15;18.10;99.90
19232;DHT22;9750;48.730;10.294;2022-08-19T15:20:42;18.10;99.90
19232;DHT22;9750;48.730;10.294;2022-08-19T15:23:10;18.10;99.90
19232;DHT22;9750;48.730;10.294;2022-08-19T15:25:38;18.10;99.90
19232;DHT22;9750;48.730;10.294;2022-08-19T15:28:07;18.10;99.90
19232;DHT22;9750;48.730;10.294;2022-08-19T15:30:38;18.10;99.90
19232;DHT22;9750;48.730;10.294;2022-08-19T15:33:06;18.10;99.90
19232;DHT22;9750;48.730;10.294;2022-08-19T15:35:34;18.10;99.90
19232;DHT22;9750;48.730;10.294;2022-08-19T15:38:01;18.10;99.90
19232;DHT22;9750;48.730;10.294;2022-08-19T15:40:29;18.10;99.90
19232;DHT22;9750;48.730;10.294;2022-08-19T15:43:03;18.10;99.90
19232;DHT22;9750;48.730;10.294;2022-08-19T15:45:32;18.10;99.90
19232;DHT22;9750;48.730;10.294;2022-08-19T15:48:01;18.20;99.90
19232;DHT22;9750;48.730;10.294;2022-08-19T15:50:29;18.20;99.90
19232;DHT22;9750;48.730;10.294;2022-08-19T15:52:59;18.20;99.90
19232;DHT22;9750;48.730;10.294;2022-08-19T15:55:30;18.20;99.90
19232;DHT22;9750;48.730;10.294;2022-08-19T15:57:59;18.20;99.90
19232;DHT22;9750;48.730;10.294;2022-08-19T16:00:53;18.30;99.90
19232;DHT22;9750;48.730;10.294;2022-08-19T16:03:37;18.30;99.90
19232;DHT22;9750;48.730;10.294;2022-08-19T16:06:22;18.30;99.90
19232;DHT22;9750;48.730;10.294;2022-08-19T16:08:52;18.30;99.90
19232;DHT22;9750;48.730;10.294;2022-08-19T16:11:21;18.30;99.90
19232;DHT22;9750;48.730;10.294;2022-08-19T16:13:51;18.30;99.90
19232;DHT22;9750;48.730;10.294;2022-08-19T16:16:24;18.40;99.90